< < Back
Terminal Aerodrome Forecast


Current Version              Previous Versions:   1  2  3  4  5  6  7  8  9  

Terminal Aerodrome Forecast

978
FTUS44 KMOB 271507 AAA
TAFPNS
TAF AMD
KPNS 271507Z 2715/2812 03010KT P6SM VCTS FEW040CB BKN150
     FM271800 VRB25G35KT 1/2SM +TSRA OVC005CB
     FM271900 27015G25KT 5SM TSRA OVC012CB
     FM272000 20012KT 6SM TSRA SCT025CB BKN040
      TEMPO 2720/2723 3SM TSRA BR BKN025CB
     FM280000 11012KT 5SM TSRA BKN025CB=



Latest METAR

631
SAUS70 KWBC 280500 RRH
MTRPNS
METAR KPNS 280453Z AUTO 01003KT 10SM -RA OVC018 18/17 A2985 RMK AO2
RAE0359B19 SLP108 P0001 T01780167


USA.gov is the U.S. government's official web portal to all federal, state and local government web resources and services.